Time;durP1;ratioP1;P1;durP2;ratioP2;P2;SDS_P1;SDS_P2;PMS_P1;PMS_P2;Temp;Humidity;BMP_temperature;BMP_pressure;BME280_temperature;BME280_humidity;BME280_pressure;Samples;Min_cycle;Max_cycle;Signal;HPM_P1;HPM_P2
2021/12/23 00:00:41;;;;;;;61.17;23.85;;;;;;;-2.90;64.43;100893.81;3153883;28;20060;-68
2021/12/23 00:02:13;;;;;;;60.03;24.63;;;;;;;-2.88;64.48;100898.97;3150786;28;20437;-67
2021/12/23 00:03:44;;;;;;;65.55;25.58;;;;;;;-2.87;64.48;100899.03;3156580;28;20044;-67
2021/12/23 00:05:16;;;;;;;62.70;24.23;;;;;;;-2.91;64.56;100902.28;3152918;28;20077;-67
2021/12/23 00:06:48;;;;;;;61.85;24.90;;;;;;;-2.92;64.48;100899.72;3155707;28;20704;-67
2021/12/23 00:08:20;;;;;;;57.03;24.27;;;;;;;-2.91;64.42;100903.97;3156572;28;20044;-67
2021/12/23 00:10:04;;;;;;;60.70;24.05;;;;;;;-2.96;64.63;100903.84;3153808;28;20144;-67
2021/12/23 00:11:39;;;;;;;61.22;24.90;;;;;;;-2.95;64.58;100902.19;3156868;28;20051;-67
2021/12/23 00:13:11;;;;;;;62.85;23.42;;;;;;;-3.00;64.56;100905.44;3156520;28;20051;-67
2021/12/23 00:14:44;;;;;;;64.63;22.40;;;;;;;-3.03;64.52;100895.19;3149897;28;20040;-65
2021/12/23 00:16:18;;;;;;;56.97;21.80;;;;;;;-3.01;64.67;100910.53;3153347;28;20083;-67
2021/12/23 00:18:04;;;;;;;62.90;22.23;;;;;;;-3.03;64.59;100905.38;3156926;28;20047;-68
2021/12/23 00:19:47;;;;;;;59.95;21.80;;;;;;;-3.05;64.78;100888.31;3149182;28;20147;-67
2021/12/23 00:23:26;;;;;;;53.70;22.55;;;;;;;-3.09;64.95;100905.19;3154291;28;20044;-68
2021/12/23 00:24:58;;;;;;;51.92;21.60;;;;;;;-3.14;64.74;100904.19;3155616;28;20509;-68
2021/12/23 00:26:30;;;;;;;55.65;22.73;;;;;;;-3.14;64.73;100899.09;3157341;28;20147;-67
2021/12/23 00:28:03;;;;;;;58.40;21.67;;;;;;;-3.14;64.73;100898.25;3154510;28;20092;-67
2021/12/23 00:29:35;;;;;;;57.50;22.65;;;;;;;-3.14;64.70;100901.66;3156527;28;20127;-68
2021/12/23 00:31:08;;;;;;;63.25;24.23;;;;;;;-3.12;64.68;100894.94;3157269;28;20047;-67
2021/12/23 00:32:39;;;;;;;61.40;24.33;;;;;;;-3.17;64.58;100891.38;3154923;28;20628;-67
2021/12/23 00:34:12;;;;;;;64.47;25.00;;;;;;;-3.14;64.79;100898.25;3152115;28;20491;-67
2021/12/23 00:35:42;;;;;;;63.28;25.27;;;;;;;-3.16;64.93;100900.78;3155251;28;20839;-68
2021/12/23 00:37:16;;;;;;;57.40;24.73;;;;;;;-3.15;64.95;100899.94;3154353;28;20043;-67
2021/12/23 00:38:55;;;;;;;64.18;25.13;;;;;;;-3.16;64.95;100898.22;3150163;28;20055;-67
2021/12/23 00:40:27;;;;;;;66.07;27.05;;;;;;;-3.18;64.97;100904.94;3155189;28;20083;-67
2021/12/23 00:42:06;;;;;;;69.93;28.45;;;;;;;-3.20;65.00;100894.69;3154440;28;20049;-67
2021/12/23 00:43:39;;;;;;;78.25;28.15;;;;;;;-3.18;65.08;100899.00;3157257;28;20047;-67
2021/12/23 00:45:11;;;;;;;64.03;26.73;;;;;;;-3.21;65.06;100897.22;3154347;28;20113;-66
2021/12/23 00:46:43;;;;;;;73.00;29.00;;;;;;;-3.32;65.08;100876.53;3157086;28;20066;-67
2021/12/23 00:48:15;;;;;;;74.85;28.95;;;;;;;-3.34;65.10;100873.09;3148492;28;20044;-67
2021/12/23 00:49:47;;;;;;;74.07;29.60;;;;;;;-3.27;65.30;100886.84;3155890;28;20056;-67
2021/12/23 00:51:20;;;;;;;84.20;31.73;;;;;;;-3.20;65.25;100888.75;3155539;28;20056;-67
2021/12/23 00:52:57;;;;;;;80.80;29.30;;;;;;;-3.23;65.46;100888.66;3155365;28;20448;-67
2021/12/23 00:54:29;;;;;;;74.30;30.13;;;;;;;-3.25;65.36;100885.22;3156386;28;20044;-67
2021/12/23 00:56:01;;;;;;;73.35;29.65;;;;;;;-3.25;65.37;100887.78;3155403;28;20052;-67
2021/12/23 00:57:37;;;;;;;77.68;30.35;;;;;;;-3.23;65.28;100888.66;3152722;28;20059;-68
2021/12/23 00:59:11;;;;;;;74.60;29.30;;;;;;;-3.51;65.34;100842.03;3156180;28;20062;-68
2021/12/23 01:00:42;;;;;;;;;;;;;;;-3.44;65.38;100896.56;3153025;28;20048;-67
2021/12/23 01:02:16;;;;;;;78.78;30.35;;;;;;;-3.49;65.82;100878.63;3155868;28;19924;-67
2021/12/23 01:03:47;;;;;;;80.90;32.22;;;;;;;-3.38;65.65;100890.78;3150944;28;20055;-67
2021/12/23 01:05:20;;;;;;;75.25;30.77;;;;;;;-3.37;65.28;100882.31;3154425;28;20052;-68
2021/12/23 01:06:52;;;;;;;79.18;31.83;;;;;;;-3.36;65.67;100894.25;3153918;28;20481;-68
2021/12/23 01:08:25;;;;;;;84.38;32.78;;;;;;;-3.89;65.63;100795.97;3154091;28;20048;-66
2021/12/23 01:09:57;;;;;;;83.97;32.38;;;;;;;-3.40;65.68;100882.22;3154405;28;20044;-67
2021/12/23 01:11:29;;;;;;;75.53;30.92;;;;;;;-3.37;65.63;100883.19;3160809;28;20108;-67
2021/12/23 01:13:03;;;;;;;82.43;32.00;;;;;;;-3.35;65.67;100886.63;3154320;28;20048;-67
2021/12/23 01:14:42;;;;;;;84.55;33.67;;;;;;;-3.35;65.64;100885.78;3156413;28;20052;-67
2021/12/23 01:16:25;;;;;;;82.90;31.80;;;;;;;-3.44;65.72;100874.50;3152003;28;20051;-67
2021/12/23 01:17:57;;;;;;;82.93;31.88;;;;;;;-3.39;65.85;100884.81;3155570;28;20127;-67
2021/12/23 01:19:38;;;;;;;85.55;33.13;;;;;;;-3.39;65.75;100881.41;3151371;28;20509;-68
2021/12/23 01:21:16;;;;;;;86.97;33.70;;;;;;;-3.40;65.91;100878.00;3153645;28;20525;-68
2021/12/23 01:22:48;;;;;;;79.28;33.80;;;;;;;-3.47;65.79;100874.41;3154769;28;20147;-67
2021/12/23 01:24:21;;;;;;;88.20;33.17;;;;;;;-3.41;65.82;100873.72;3148916;28;20074;-66
2021/12/23 01:25:52;;;;;;;86.60;33.35;;;;;;;-3.40;65.82;100879.66;3155385;28;20052;-66
2021/12/23 01:27:24;;;;;;;90.85;34.60;;;;;;;-3.42;65.77;100878.78;3152907;28;20096;-67
2021/12/23 01:28:59;;;;;;;87.32;34.25;;;;;;;-3.51;65.74;100859.88;3153872;28;20071;-67
2021/12/23 01:30:31;;;;;;;88.40;35.67;;;;;;;-3.47;65.92;100871.00;3154532;28;20089;-67
2021/12/23 01:32:06;;;;;;;94.28;36.42;;;;;;;-3.70;65.80;100827.94;3152208;28;20125;-67
2021/12/23 01:33:37;;;;;;;88.75;32.60;;;;;;;-3.48;65.85;100877.78;3156035;28;20479;-67
2021/12/23 01:35:10;;;;;;;84.25;33.03;;;;;;;-3.48;65.71;100875.25;3153833;28;20060;-67
2021/12/23 01:36:42;;;;;;;89.10;35.60;;;;;;;-3.54;65.92;100875.06;3158482;28;20047;-68
2021/12/23 01:38:14;;;;;;;83.88;33.92;;;;;;;-3.60;66.23;100861.28;3154462;28;20712;-67
2021/12/23 01:39:46;;;;;;;78.95;33.33;;;;;;;-3.54;66.10;100875.06;3155899;28;20095;-67
2021/12/23 01:41:19;;;;;;;86.18;34.05;;;;;;;-3.60;66.13;100861.28;3154101;28;20047;-68
2021/12/23 01:42:51;;;;;;;76.70;32.75;;;;;;;-3.63;66.16;100862.06;3154558;28;20044;-68
2021/12/23 01:44:22;;;;;;;86.55;33.78;;;;;;;-3.67;66.14;100844.94;3154360;28;20064;-68
2021/12/23 01:45:56;;;;;;;82.03;33.25;;;;;;;-3.53;66.25;100873.38;3156764;28;20136;-68
2021/12/23 01:47:29;;;;;;;88.15;34.80;;;;;;;-3.57;66.27;100872.44;3154055;28;20040;-68
2021/12/23 01:49:01;;;;;;;83.88;34.22;;;;;;;-4.03;66.39;100796.38;3154900;28;20048;-68
2021/12/23 01:50:37;;;;;;;83.10;33.80;;;;;;;-3.70;66.21;100850.84;3155121;28;20048;-67
2021/12/23 01:52:09;;;;;;;84.70;34.47;;;;;;;-3.60;66.20;100863.84;3155544;28;20055;-67
2021/12/23 01:53:41;;;;;;;88.93;35.22;;;;;;;-3.86;66.19;100822.34;3155148;28;20056;-67
2021/12/23 01:55:13;;;;;;;86.13;33.95;;;;;;;-3.63;66.31;100851.03;3153352;28;20044;-67
2021/12/23 01:56:45;;;;;;;90.05;36.83;;;;;;;-3.61;66.48;100860.41;3153946;28;20052;-67
2021/12/23 01:58:18;;;;;;;77.60;32.40;;;;;;;-3.63;66.42;100859.53;3156572;28;20052;-67
2021/12/23 01:59:50;;;;;;;82.50;34.17;;;;;;;-3.64;66.46;100860.31;3154062;28;20109;-68
2021/12/23 02:01:24;;;;;;;96.13;35.47;;;;;;;-3.62;66.46;100856.16;3137018;28;20056;-68
2021/12/23 02:02:57;;;;;;;80.43;33.78;;;;;;;-3.62;66.55;100860.38;3137181;28;20624;-67
2021/12/23 02:04:29;;;;;;;;;;;;;;;-3.80;66.65;100856.47;3143359;28;20590;-67
2021/12/23 02:06:00;;;;;;;80.88;31.17;;;;;;;-3.78;66.87;100856.53;3138497;28;19938;-68
2021/12/23 02:07:32;;;;;;;100.35;34.15;;;;;;;-3.71;66.67;100858.41;3140532;28;20414;-67
2021/12/23 02:09:05;;;;;;;84.35;32.38;;;;;;;-3.70;66.62;100862.69;3141914;28;20071;-67
2021/12/23 02:10:39;;;;;;;78.35;31.40;;;;;;;-3.70;66.54;100853.41;3138794;28;20045;-68
2021/12/23 02:12:11;;;;;;;78.53;32.28;;;;;;;-3.73;66.59;100850.72;3142682;28;20036;-67
2021/12/23 02:13:43;;;;;;;86.63;32.63;;;;;;;-3.70;66.68;100853.41;3138843;28;20053;-68
2021/12/23 02:15:16;;;;;;;82.20;32.97;;;;;;;-3.69;66.57;100850.00;3143772;28;20045;-68
2021/12/23 02:16:49;;;;;;;;;;;;;;;-3.88;66.62;100857.91;3142891;28;20131;-68
2021/12/23 02:18:21;;;;;;;85.85;32.08;;;;;;;-3.84;66.97;100853.81;3139074;28;19921;-68
2021/12/23 02:19:55;;;;;;;90.07;33.88;;;;;;;-3.76;66.90;100852.31;3143172;28;20076;-68
2021/12/23 02:21:27;;;;;;;83.03;32.97;;;;;;;-3.76;66.67;100854.88;3142692;28;20113;-68
2021/12/23 02:23:00;;;;;;;78.85;31.90;;;;;;;-3.73;66.76;100854.97;3140784;28;20057;-68
2021/12/23 02:24:32;;;;;;;73.07;30.55;;;;;;;-3.77;66.69;100850.59;3140997;28;20049;-68
2021/12/23 02:26:04;;;;;;;72.82;29.65;;;;;;;-3.74;66.78;100853.25;3138690;28;20099;-68
2021/12/23 02:27:36;;;;;;;77.35;29.77;;;;;;;-4.22;66.55;100774.63;3144027;28;20517;-68
2021/12/23 02:29:08;;;;;;;73.93;31.20;;;;;;;-3.72;66.65;100859.25;3141256;28;20573;-66
2021/12/23 02:30:40;;;;;;;82.27;31.10;;;;;;;-3.74;66.60;100849.00;3140960;28;20596;-68
2021/12/23 02:32:11;;;;;;;69.83;29.77;;;;;;;-3.72;66.55;100854.16;3143658;28;20052;-67
2021/12/23 02:33:43;;;;;;;73.60;28.92;;;;;;;-3.71;66.50;100860.97;3141203;28;20319;-67
2021/12/23 02:35:19;;;;;;;71.80;29.48;;;;;;;-3.76;66.61;100848.09;3135510;28;20053;-67
2021/12/23 02:36:51;;;;;;;80.32;31.17;;;;;;;-3.74;66.51;100858.34;3141929;28;20064;-67
2021/12/23 02:38:24;;;;;;;74.68;31.25;;;;;;;-3.74;66.38;100858.34;3141406;28;20108;-67
2021/12/23 02:39:56;;;;;;;87.43;31.75;;;;;;;-3.76;66.48;100868.44;3143873;28;20075;-67
2021/12/23 02:41:28;;;;;;;81.47;32.28;;;;;;;-3.79;66.46;100858.19;3138452;28;20414;-68
2021/12/23 02:43:10;;;;;;;74.03;31.63;;;;;;;-3.76;66.38;100862.50;3141480;28;20113;-67
2021/12/23 02:44:42;;;;;;;80.88;33.05;;;;;;;-3.88;66.61;100858.78;3142286;28;20076;-68
2021/12/23 02:46:17;;;;;;;81.45;33.50;;;;;;;-3.79;66.71;100867.50;3143976;28;20519;-68
2021/12/23 02:47:49;;;;;;;80.43;32.58;;;;;;;-3.83;66.75;100866.56;3144293;28;20048;-67
2021/12/23 02:49:21;;;;;;;86.47;33.42;;;;;;;-3.84;66.77;100858.91;3141979;28;20052;-67
2021/12/23 02:50:56;;;;;;;89.95;34.47;;;;;;;-3.79;66.73;100864.97;3142825;28;20056;-67
2021/12/23 02:52:28;;;;;;;85.18;34.72;;;;;;;-3.84;66.69;100862.28;3142298;28;20052;-67
2021/12/23 02:54:00;;;;;;;84.53;35.63;;;;;;;-3.84;66.84;100853.81;3143335;28;20060;-67
2021/12/23 02:55:31;;;;;;;84.55;35.55;;;;;;;-3.88;66.73;100851.13;3139963;28;20071;-68
2021/12/23 02:57:03;;;;;;;88.32;36.95;;;;;;;-3.85;66.85;100857.16;3138056;28;20506;-68
2021/12/23 02:58:36;;;;;;;87.50;35.95;;;;;;;-3.89;66.95;100854.50;3144739;28;20432;-68
2021/12/23 03:00:09;;;;;;;96.55;39.15;;;;;;;-4.02;66.90;100837.16;3142007;28;20126;-67
2021/12/23 03:01:41;;;;;;;;;;;;;;;-4.09;67.12;100850.50;3153065;28;20055;-67
2021/12/23 03:03:12;;;;;;;94.28;38.50;;;;;;;-4.06;67.32;100857.34;3156922;28;20624;-66
2021/12/23 03:04:44;;;;;;;86.05;36.45;;;;;;;-4.02;67.27;100854.97;3158535;28;20044;-67
2021/12/23 03:06:19;;;;;;;86.25;36.30;;;;;;;-4.20;67.15;100821.31;3156454;28;20051;-67
2021/12/23 03:07:52;;;;;;;98.82;36.95;;;;;;;-3.98;67.05;100861.88;3154383;28;20103;-67
2021/12/23 03:09:23;;;;;;;87.22;34.70;;;;;;;-4.00;67.11;100855.00;3156571;28;20628;-67
2021/12/23 03:10:55;;;;;;;91.88;35.55;;;;;;;-3.96;67.14;100860.25;3156569;28;20052;-66
2021/12/23 03:12:27;;;;;;;91.50;36.60;;;;;;;-3.99;67.16;100854.19;3157271;28;20044;-67
2021/12/23 03:13:59;;;;;;;86.03;36.35;;;;;;;-4.20;67.02;100821.31;3154306;28;20418;-67
2021/12/23 03:15:31;;;;;;;85.82;36.50;;;;;;;-3.95;67.09;100859.41;3156942;28;20059;-68
2021/12/23 03:17:04;;;;;;;86.28;34.60;;;;;;;-3.94;67.17;100863.69;3154098;28;20097;-67
2021/12/23 03:18:36;;;;;;;84.07;35.23;;;;;;;-4.03;67.12;100848.13;3155725;28;20427;-67
2021/12/23 03:20:09;;;;;;;86.85;34.78;;;;;;;-3.97;67.14;100858.50;3157509;28;20305;-67
2021/12/23 03:21:44;;;;;;;81.32;33.97;;;;;;;-3.97;67.01;100862.72;3151790;28;20089;-67
2021/12/23 03:23:16;;;;;;;84.15;34.70;;;;;;;-3.96;67.03;100872.97;3156715;28;20768;-67
2021/12/23 03:24:48;;;;;;;82.28;34.10;;;;;;;-3.95;66.97;100867.03;3154461;28;20043;-67
2021/12/23 03:26:20;;;;;;;85.57;35.78;;;;;;;-3.93;67.00;100870.50;3156203;28;20142;-67
2021/12/23 03:27:52;;;;;;;89.35;36.28;;;;;;;-3.96;67.04;100867.88;3156976;28;20044;-68
2021/12/23 03:29:24;;;;;;;87.88;35.05;;;;;;;-3.93;67.06;100873.06;3156220;28;20264;-68
2021/12/23 03:30:55;;;;;;;80.88;34.35;;;;;;;-3.93;66.97;100878.16;3156279;28;20052;-67
2021/12/23 03:32:27;;;;;;;83.32;34.40;;;;;;;-3.94;67.09;100873.84;3155453;28;20117;-67
2021/12/23 03:33:59;;;;;;;83.50;35.22;;;;;;;-3.93;66.95;100880.69;3156070;28;20048;-67
2021/12/23 03:35:31;;;;;;;88.57;35.92;;;;;;;-3.94;67.00;100878.09;3156597;28;20570;-67
2021/12/23 03:37:05;;;;;;;87.82;37.47;;;;;;;-3.93;67.04;100877.28;3156721;28;20054;-67
2021/12/23 03:38:37;;;;;;;90.40;36.38;;;;;;;-4.33;66.89;100812.44;3157660;28;20048;-67
2021/12/23 03:40:10;;;;;;;84.90;35.25;;;;;;;-3.95;67.09;100877.22;3155621;28;20045;-67
2021/12/23 03:41:42;;;;;;;82.78;34.75;;;;;;;-3.98;67.04;100879.69;3157647;28;20052;-67
2021/12/23 03:43:16;;;;;;;75.22;33.35;;;;;;;-3.99;67.01;100875.41;3154817;28;20048;-67
2021/12/23 03:44:48;;;;;;;71.00;31.90;;;;;;;-4.01;66.90;100874.50;3156893;28;20051;-67
2021/12/23 03:46:20;;;;;;;82.25;33.05;;;;;;;-4.02;66.88;100875.31;3157646;28;20432;-67
2021/12/23 03:47:52;;;;;;;76.32;34.03;;;;;;;-4.33;66.93;100830.25;3154970;28;20539;-67
2021/12/23 03:49:24;;;;;;;76.50;32.15;;;;;;;-4.04;66.90;100876.94;3155870;28;20512;-67
2021/12/23 03:50:56;;;;;;;80.57;32.60;;;;;;;-4.07;66.98;100871.75;3157902;28;20389;-66
2021/12/23 03:52:29;;;;;;;72.75;32.60;;;;;;;-4.05;66.90;100874.34;3155486;28;20048;-67
2021/12/23 03:54:02;;;;;;;77.05;32.28;;;;;;;-4.09;66.82;100877.63;3151201;28;20190;-67
2021/12/23 03:55:34;;;;;;;76.22;31.83;;;;;;;-4.09;66.86;100888.66;3155597;28;20049;-67
2021/12/23 03:57:06;;;;;;;76.60;33.65;;;;;;;-4.09;67.00;100888.66;3156124;28;20055;-67
2021/12/23 03:58:38;;;;;;;68.40;31.93;;;;;;;-4.10;67.06;100884.38;3157508;28;20055;-66
2021/12/23 04:00:13;;;;;;;84.80;33.08;;;;;;;-4.08;66.94;100890.41;3155016;28;20105;-67
2021/12/23 04:01:45;;;;;;;77.35;33.25;;;;;;;-4.23;66.71;100870.44;3151707;28;20150;-67
2021/12/23 04:03:17;;;;;;;73.38;31.08;;;;;;;-4.15;66.84;100881.69;3155620;28;20113;-67
2021/12/23 04:04:49;;;;;;;79.20;33.90;;;;;;;-4.16;66.83;100887.59;3155293;28;20048;-67
2021/12/23 04:06:23;;;;;;;70.28;29.88;;;;;;;-4.12;66.87;100894.50;3151139;28;20048;-67
2021/12/23 04:07:56;;;;;;;68.72;30.42;;;;;;;-4.15;66.93;100891.00;3155284;28;20052;-67
2021/12/23 04:09:28;;;;;;;77.25;31.77;;;;;;;-4.17;66.80;100890.06;3155419;28;20116;-67
2021/12/23 04:11:01;;;;;;;69.90;31.08;;;;;;;-4.14;66.94;100895.25;3161300;28;20440;-67
2021/12/23 04:12:33;;;;;;;61.67;29.30;;;;;;;-4.18;66.96;100896.00;3150885;28;20505;-68
2021/12/23 04:14:05;;;;;;;71.35;29.65;;;;;;;-4.18;67.06;100896.00;3158192;28;20040;-66
2021/12/23 04:15:37;;;;;;;67.70;31.15;;;;;;;-4.15;66.98;100899.50;3158364;28;20075;-67
2021/12/23 04:17:09;;;;;;;72.88;30.52;;;;;;;-4.16;66.89;100902.00;3154783;28;20048;-65
2021/12/23 04:18:45;;;;;;;67.25;30.30;;;;;;;-4.19;67.07;100897.69;3153753;28;20351;-66
2021/12/23 04:20:20;;;;;;;70.72;29.10;;;;;;;-4.66;66.93;100814.78;3156074;28;20052;-66
2021/12/23 04:21:51;;;;;;;66.97;28.85;;;;;;;-4.15;67.00;100903.72;3155862;28;20101;-66
2021/12/23 04:23:27;;;;;;;67.88;30.30;;;;;;;-4.13;66.99;100904.66;3154253;28;20047;-66
2021/12/23 04:24:59;;;;;;;72.57;29.52;;;;;;;-4.16;66.91;100902.84;3155364;28;20051;-67
2021/12/23 04:26:31;;;;;;;69.80;29.60;;;;;;;-4.16;67.01;100904.53;3155678;28;20044;-67
2021/12/23 04:28:04;;;;;;;69.47;29.23;;;;;;;-4.19;66.88;100902.75;3152196;28;20446;-67
2021/12/23 04:29:36;;;;;;;65.40;29.10;;;;;;;-4.17;66.98;100905.34;3154828;28;20044;-67
2021/12/23 04:31:08;;;;;;;65.63;29.23;;;;;;;-4.17;66.96;100905.34;3155317;28;20141;-68
2021/12/23 04:32:40;;;;;;;73.13;29.15;;;;;;;-4.21;66.95;100901.84;3156364;28;20101;-66
2021/12/23 04:34:12;;;;;;;66.10;27.70;;;;;;;-4.42;66.91;100863.00;3155456;28;20059;-66
2021/12/23 04:35:43;;;;;;;62.65;28.98;;;;;;;-4.16;66.94;100907.94;3156024;28;20085;-66
2021/12/23 04:37:16;;;;;;;64.05;26.83;;;;;;;-4.16;66.89;100904.53;3155389;28;20102;-67
2021/12/23 04:38:49;;;;;;;47.63;22.20;;;;;;;-4.21;66.97;100895.91;3155508;28;20036;-66
2021/12/23 04:40:21;;;;;;;63.58;27.25;;;;;;;-4.19;67.10;100907.00;3157106;28;20302;-66
2021/12/23 04:41:53;;;;;;;62.38;27.15;;;;;;;-4.20;66.94;100892.53;3154742;28;20040;-66
2021/12/23 04:43:25;;;;;;;63.97;27.15;;;;;;;-4.21;66.92;100890.81;3156191;28;20048;-66
2021/12/23 04:44:56;;;;;;;62.17;25.35;;;;;;;-4.16;66.92;100902.00;3157313;28;20509;-66
2021/12/23 04:46:28;;;;;;;58.10;25.45;;;;;;;-4.14;66.79;100898.69;3155925;28;20060;-66
2021/12/23 04:48:00;;;;;;;55.95;25.50;;;;;;;-4.15;66.80;100898.63;3150312;28;20052;-66
2021/12/23 04:49:31;;;;;;;63.88;25.95;;;;;;;-4.13;66.69;100902.97;3155598;28;20059;-67
2021/12/23 04:51:04;;;;;;;64.07;25.30;;;;;;;-4.13;66.65;100897.00;3156141;28;20432;-67
2021/12/23 04:52:35;;;;;;;63.88;27.73;;;;;;;-4.14;66.50;100900.34;3150963;28;20081;-65
2021/12/23 04:54:09;;;;;;;61.75;26.25;;;;;;;-4.14;66.55;100897.81;3156396;28;20060;-66
2021/12/23 04:55:42;;;;;;;63.55;27.60;;;;;;;-4.17;66.68;100896.06;3155917;28;20049;-66
2021/12/23 04:57:13;;;;;;;64.03;28.52;;;;;;;-4.18;66.63;100893.44;3160734;28;20048;-65
2021/12/23 04:58:46;;;;;;;70.85;30.23;;;;;;;-4.17;66.63;100892.63;3154870;28;20091;-67
2021/12/23 05:00:22;;;;;;;70.43;30.17;;;;;;;-4.22;66.66;100889.94;3152216;28;20056;-67
2021/12/23 05:01:54;;;;;;;67.72;30.27;;;;;;;-4.35;66.63;100875.97;3150219;28;20597;-67
2021/12/23 05:03:26;;;;;;;74.22;31.30;;;;;;;-4.32;66.72;100874.34;3155825;28;20067;-67
2021/12/23 05:04:58;;;;;;;74.60;32.38;;;;;;;-4.19;66.58;100887.50;3155949;28;20048;-66
2021/12/23 05:06:30;;;;;;;71.05;30.83;;;;;;;-4.19;66.61;100889.19;3155663;28;20048;-66
2021/12/23 05:08:02;;;;;;;71.10;31.25;;;;;;;-4.23;66.56;100888.22;3154467;28;20044;-67
2021/12/23 05:09:35;;;;;;;69.20;30.70;;;;;;;-4.23;66.64;100885.69;3150671;28;20048;-67
2021/12/23 05:11:07;;;;;;;67.75;29.63;;;;;;;-4.23;66.54;100890.78;3150669;28;20113;-67
2021/12/23 05:12:43;;;;;;;66.35;30.48;;;;;;;-4.23;66.61;100883.16;3153112;28;20503;-67
2021/12/23 05:14:15;;;;;;;76.13;31.02;;;;;;;-4.24;66.75;100888.16;3157042;28;20052;-68
2021/12/23 05:15:47;;;;;;;72.22;31.33;;;;;;;-4.26;66.62;100895.75;3153877;28;20052;-68
2021/12/23 05:17:19;;;;;;;68.57;30.23;;;;;;;-4.51;66.62;100847.47;3154013;28;20044;-67
2021/12/23 05:18:51;;;;;;;68.13;31.17;;;;;;;-4.25;66.69;100891.53;3155077;28;20476;-67
2021/12/23 05:20:23;;;;;;;76.05;33.22;;;;;;;-4.27;66.70;100894.00;3155872;28;20044;-67
2021/12/23 05:21:55;;;;;;;83.82;34.55;;;;;;;-4.33;66.88;100883.66;3156683;28;20055;-67
2021/12/23 05:23:26;;;;;;;77.57;33.15;;;;;;;-4.30;66.84;100899.00;3154063;28;20052;-67
2021/12/23 05:25:00;;;;;;;73.93;30.45;;;;;;;-4.31;66.98;100899.81;3155876;28;20047;-67
2021/12/23 05:26:32;;;;;;;78.50;31.30;;;;;;;-4.37;67.20;100890.31;3157207;28;20052;-68
2021/12/23 05:28:04;;;;;;;80.50;31.92;;;;;;;-4.35;67.29;100892.91;3154155;28;20444;-67
2021/12/23 05:29:36;;;;;;;76.60;32.15;;;;;;;-4.35;67.30;100901.41;3155220;28;20044;-65
2021/12/23 05:31:08;;;;;;;78.72;32.10;;;;;;;-4.39;67.31;100891.94;3155919;28;20418;-68
2021/12/23 05:32:42;;;;;;;77.28;33.45;;;;;;;-4.70;67.62;100830.72;3155567;28;20063;-70
2021/12/23 05:34:14;;;;;;;81.10;33.95;;;;;;;-4.30;67.42;100899.00;3155494;28;20091;-66
2021/12/23 05:35:46;;;;;;;78.15;32.50;;;;;;;-4.40;67.36;100882.59;3156075;28;20722;-67
2021/12/23 05:37:17;;;;;;;83.47;38.55;;;;;;;-4.30;67.42;100903.22;3153913;28;20109;-67
2021/12/23 05:38:48;;;;;;;89.10;41.05;;;;;;;-4.56;67.43;100857.47;3155762;28;20124;-65
2021/12/23 05:40:23;;;;;;;82.20;36.08;;;;;;;-4.29;67.46;100898.19;3152451;28;20056;-67
2021/12/23 05:41:55;;;;;;;84.60;33.88;;;;;;;-4.45;67.49;100876.47;3156300;28;20525;-67
2021/12/23 05:43:27;;;;;;;79.03;34.05;;;;;;;-4.31;67.52;100910.00;3156440;28;20634;-64
2021/12/23 05:44:59;;;;;;;77.95;32.28;;;;;;;-4.31;67.60;100898.97;3154214;28;20051;-67
2021/12/23 05:46:31;;;;;;;85.63;34.53;;;;;;;-4.37;67.64;100889.47;3153190;28;20055;-67
2021/12/23 05:48:03;;;;;;;87.78;34.28;;;;;;;-4.32;67.66;100905.72;3154878;28;20041;-68
2021/12/23 05:49:35;;;;;;;90.30;37.05;;;;;;;-4.45;67.66;100885.78;3155242;28;20044;-67
2021/12/23 05:51:07;;;;;;;85.80;34.40;;;;;;;-4.37;67.61;100889.47;3155522;28;20048;-67
2021/12/23 05:52:39;;;;;;;76.35;33.65;;;;;;;-4.31;67.63;100906.59;3152225;28;20055;-67
2021/12/23 05:54:11;;;;;;;83.93;33.22;;;;;;;-4.61;67.57;100852.25;3154148;28;20130;-67
2021/12/23 05:55:45;;;;;;;83.20;34.17;;;;;;;-4.31;67.65;100911.69;3155926;28;20067;-67
2021/12/23 05:57:17;;;;;;;74.28;32.72;;;;;;;-4.35;67.61;100906.50;3154705;28;20048;-66
2021/12/23 05:58:49;;;;;;;74.50;32.93;;;;;;;-4.31;67.87;100914.22;3154852;28;20101;-66
2021/12/23 06:00:24;;;;;;;78.30;31.50;;;;;;;-4.32;67.53;100902.31;3154708;28;20818;-65
2021/12/23 06:01:56;;;;;;;89.45;33.20;;;;;;;-4.60;67.55;100864.13;3153922;28;20044;-65
2021/12/23 06:03:28;;;;;;;90.18;33.28;;;;;;;-4.29;67.58;100910.03;3155492;28;20048;-67
2021/12/23 06:05:00;;;;;;;78.97;32.47;;;;;;;-4.28;67.64;100916.88;3152403;28;20048;-66
2021/12/23 06:06:33;;;;;;;80.53;31.85;;;;;;;-4.31;67.59;100904.06;3152985;28;20464;-65
2021/12/23 06:08:05;;;;;;;82.03;36.85;;;;;;;-4.29;67.72;100915.13;3151499;28;20056;-65
2021/12/23 06:09:37;;;;;;;82.88;36.05;;;;;;;-4.28;67.59;100916.88;3143654;28;20059;-65
2021/12/23 06:11:24;;;;;;;86.88;37.85;;;;;;;-4.27;67.57;100916.03;3145024;28;20048;-67
2021/12/23 06:12:56;;;;;;;72.20;35.15;;;;;;;-4.30;67.62;100921.03;3145123;28;20058;-67
2021/12/23 06:14:28;;;;;;;74.65;33.25;;;;;;;-4.26;67.65;100921.19;3144440;28;20059;-70
2021/12/23 06:16:00;;;;;;;72.97;32.57;;;;;;;-4.23;67.73;100926.38;3142701;28;20043;-70
2021/12/23 06:17:33;;;;;;;72.63;33.33;;;;;;;-4.16;67.91;100928.28;3144682;28;20314;-66
2021/12/23 06:19:05;;;;;;;80.97;32.83;;;;;;;-4.11;68.02;100918.28;3144283;28;20160;-69
2021/12/23 06:20:37;;;;;;;87.65;35.72;;;;;;;-3.99;68.42;100926.31;3147021;28;20082;-69
2021/12/23 06:22:09;;;;;;;84.68;37.85;;;;;;;-3.86;68.55;100927.53;3146797;28;20390;-68
2021/12/23 06:23:41;;;;;;;76.88;32.67;;;;;;;-3.70;68.74;100933.97;3148369;28;20561;-70
2021/12/23 06:25:14;;;;;;;77.57;33.35;;;;;;;-3.74;68.49;100906.69;3147171;28;20048;-71
2021/12/23 06:26:47;;;;;;;79.55;34.55;;;;;;;-3.42;68.69;100932.28;3149430;28;20056;-71
2021/12/23 06:28:20;;;;;;;83.03;34.30;;;;;;;-3.33;68.69;100930.84;3147097;28;20109;-70
2021/12/23 06:29:52;;;;;;;81.50;35.17;;;;;;;-3.17;68.62;100927.03;3146413;28;20040;-64
2021/12/23 06:31:24;;;;;;;79.50;34.65;;;;;;;-2.97;68.49;100943.75;3146312;28;20508;-70
2021/12/23 06:32:56;;;;;;;81.85;35.40;;;;;;;-2.84;68.13;100939.00;3150349;28;20079;-69
2021/12/23 06:34:28;;;;;;;84.88;35.25;;;;;;;-2.80;67.63;100928.94;3144710;28;20105;-70
2021/12/23 06:36:00;;;;;;;83.00;33.55;;;;;;;-2.66;67.46;100934.44;3148289;28;20063;-70
2021/12/23 06:37:32;;;;;;;82.13;35.15;;;;;;;-2.53;67.10;100938.16;3149424;28;20066;-71
2021/12/23 06:39:06;;;;;;;82.45;37.42;;;;;;;-2.41;66.81;100942.72;3147066;28;20441;-71
2021/12/23 06:40:38;;;;;;;;;;;;;;;-2.47;67.01;100948.50;3149531;28;20505;-70
2021/12/23 06:42:11;;;;;;;80.45;35.88;;;;;;;-2.31;66.89;100945.53;3149127;28;19927;-71
2021/12/23 06:43:43;;;;;;;;;;;;;;;-2.26;66.63;100944.78;3148800;28;20051;-71
2021/12/23 06:45:16;;;;;;;89.32;34.22;;;;;;;-2.38;66.57;100899.41;3146192;28;19923;-71
2021/12/23 06:46:48;;;;;;;77.30;33.97;;;;;;;-1.87;66.25;100947.44;3146753;28;20056;-72
2021/12/23 06:48:20;;;;;;;78.18;32.97;;;;;;;-1.70;65.83;100946.16;3144971;28;20141;-71
2021/12/23 06:49:52;;;;;;;77.72;34.10;;;;;;;-1.55;65.32;100955.84;3146906;28;20552;-71
2021/12/23 06:51:27;;;;;;;83.03;36.17;;;;;;;-1.45;65.02;100945.03;3146114;28;20126;-74
2021/12/23 06:52:59;;;;;;;79.22;33.97;;;;;;;-1.49;64.77;100930.44;3146758;28;20511;-74
2021/12/23 06:54:32;;;;;;;77.18;34.60;;;;;;;-1.34;64.33;100934.16;3148295;28;20482;-74
2021/12/23 06:56:04;;;;;;;90.45;38.33;;;;;;;-1.23;63.98;100940.38;3147826;28;20113;-67
2021/12/23 06:57:38;;;;;;;84.45;35.97;;;;;;;-1.17;63.80;100943.91;3146397;28;20446;-68
2021/12/23 06:59:14;;;;;;;85.10;36.38;;;;;;;-1.07;63.73;100939.84;3147244;28;20086;-68
2021/12/23 07:00:46;;;;;;;79.80;35.53;;;;;;;-0.96;63.55;100933.25;3146359;28;20100;-68
2021/12/23 07:02:19;;;;;;;82.32;35.88;;;;;;;-0.95;63.30;100921.31;3146134;28;20237;-68
2021/12/23 07:04:05;;;;;;;78.00;35.83;;;;;;;-1.07;63.36;100881.03;3145182;28;20105;-68
2021/12/23 07:05:41;;;;;;;89.68;38.45;;;;;;;-0.85;63.09;100910.44;3145598;28;20044;-68